x

Dauphin Island, Al (dpia1) Weather Station

8:00am - Thu 8th Dec 2016 All times are CST. -6 hours from GMT.

  • Wind
    26mph, 31mph gusts
  • Air Temp 52°f
  • Sea Pressure 1025mb
  • Dauphin Island, Al
  • Dauphin Island, Al

More Historic Weather Station data

Upgrade to MSW Pro to gain access to the past 30 days of data for over 8000 Wavebouys and Weather Stations around the globe.

Join Pro

Comparision Forecast

View Surf forecast
   
Thu 12/08 8:00am 26 31 mph 1025mb 52f
7:00am 21 24 mph 1024.2mb 53f
6:00am 15 17 mph 1023.2mb 54f
5:00am 18 21 mph 1021.8mb 54f
4:00am 15 16 mph 1021.5mb 55f
3:00am 15 16 mph 1021.9mb 55f
2:00am 15 18 mph 1021.7mb 56f
1:00am 17 18 mph 1021.5mb 57f
12:00am 9 10 mph 1021.1mb 60f
Wed 12/07 11:00pm 8 9 mph 1021mb 60f
10:00pm 11
mph
1020.8mb 60f
9:00pm 3 5 mph 1020.6mb 61f
8:00pm 3
mph
1020.4mb 61f
7:00pm 2 3 mph 1020.1mb 60f
6:00pm 5 6 mph 1019.6mb 60f
5:00pm 2
mph
1018.9mb 59f
4:00pm 2 3 mph 1018.6mb 59f
3:00pm 3
mph
1018.3mb 59f
2:00pm 3 5 mph 1018.2mb 59f
1:00pm 3 5 mph 1018.2mb 58f
12:00pm 2 3 mph 1019mb 58f
11:00am 3 5 mph 1019.8mb 57f
10:00am 3 5 mph 1019.9mb 57f
9:00am 3
mph
1019.6mb 58f
8:00am 5 6 mph 1019mb 56f
7:00am 2 3 mph 1018.8mb 56f
6:00am 5
mph
1018mb 55f
5:00am 8 9 mph 1017.3mb 55f
4:00am 7 8 mph 1017mb 55f
3:00am 9 10 mph 1016.9mb 55f
2:00am 9 10 mph 1016.5mb 55f
1:00am 8 9 mph 1016.4mb 55f
12:00am 7 9 mph 1016.2mb 56f
Tue 12/06 11:00pm 6 8 mph 1016.3mb 56f
10:00pm 14 16 mph 1016.6mb 56f
9:00pm 15 16 mph 1016.4mb 57f
8:00pm 13 15 mph 1015.5mb 58f
6:00pm 9 11 mph 1014mb 61f
5:00pm 9 13 mph 1013.1mb 61f
4:00pm 9 14 mph 1012.5mb 62f
3:00pm 10 15 mph 1011.7mb 62f
2:00pm 10 11 mph 1011.5mb 63f
1:00pm 11 15 mph 1011.7mb 62f
12:00pm 13 16 mph 1012.1mb 61f
11:00am 13 18 mph 1012.3mb 61f
10:00am 16 20 mph 1012.5mb 61f
9:00am 11 16 mph 1011.8mb 60f
8:00am 18 22 mph 1010.7mb 60f
7:00am 16 22 mph 1009.5mb 60f
6:00am 17 24 mph 1008.3mb 61f
5:00am 16 21 mph 1007mb 63f
4:00am 21 28 mph 1006.2mb 64f
3:00am 20 25 mph 1005.2mb 68f
2:00am 10 16 mph 1004.6mb 69f
1:00am 3
mph
1004.1mb 66f
12:00am 8
mph
1004.1mb 64f
Mon 12/05 11:00pm 7 8 mph 1005.4mb 64f
10:00pm 9 10 mph 1006.1mb 63f
9:00pm 10 11 mph 1006.6mb 63f
8:00pm 14 15 mph 1006.8mb 62f
7:00pm 11 13 mph 1006.5mb 62f
6:00pm 18 21 mph 1007.3mb 61f
5:00pm 24 28 mph 1006.8mb 61f
4:00pm 25 29 mph 1006.2mb 61f
3:00pm 20 22 mph 1006.7mb 63f
2:00pm 11 13 mph 1006.7mb 65f
1:00pm 10 11 mph 1007.4mb 63f
12:00pm 13 15 mph 1007.8mb 62f
11:00am 11 13 mph 1010.2mb 61f
10:00am 11 14 mph 1011.8mb 61f
9:00am 10 11 mph 1012mb 61f
8:00am 10 13 mph 1011.8mb 61f
7:00am 17 18 mph 1011.9mb 59f
6:00am 21 22 mph 1012.1mb 60f
5:00am 18 21 mph 1011.8mb 60f
4:00am 18 23 mph 1011.6mb 62f
3:00am 16 17 mph 1010.9mb 67f
2:00am 17 20 mph 1011.7mb 67f
1:00am 18 22 mph 1012.2mb 65f
12:00am 16 20 mph 1013.3mb 65f
Sun 12/04 11:00pm 6 7 mph 1014.8mb 63f
10:00pm 8 9 mph 1015.4mb 63f
9:00pm 13 16 mph 1014.3mb 64f
8:00pm 14 15 mph 1014.5mb 65f
7:00pm 11 13 mph 1014.1mb 66f
6:00pm 13
mph
1012.6mb 66f
5:00pm 10 11 mph 1011.9mb 67f
4:00pm 7 9 mph 1011.2mb 71f